Time;durP1;ratioP1;P1;durP2;ratioP2;P2;SDS_P1;SDS_P2;PMS_P1;PMS_P2;Temp;Humidity;BMP_temperature;BMP_pressure;BME280_temperature;BME280_humidity;BME280_pressure;Samples;Min_cycle;Max_cycle;Signal;HPM_P1;HPM_P2
2022/09/19 16:23:22;;;;;;;1.00;0.50;;;;;;;17.48;52.34;100774.47;5076214;27;20392;-79
2022/09/19 16:26:00;;;;;;;5.65;0.80;;;;;;;17.54;51.58;100780.72;5078827;28;20767;-79
2022/09/19 16:28:32;;;;;;;2.42;0.73;;;;;;;17.61;51.07;100784.00;5076443;28;20407;-81
2022/09/19 16:31:03;;;;;;;2.22;0.60;;;;;;;17.70;51.39;100782.31;5071386;28;20914;-81
2022/09/19 16:33:35;;;;;;;3.70;0.53;;;;;;;17.80;51.88;100774.00;5106460;28;20406;-81
2022/09/19 16:36:03;;;;;;;3.30;0.90;;;;;;;17.89;52.42;100783.25;5086918;28;20703;-81
2022/09/19 16:38:28;;;;;;;3.10;0.80;;;;;;;17.93;52.65;100770.63;5098065;28;20496;-81
2022/09/19 16:41:02;;;;;;;2.13;0.70;;;;;;;17.87;52.97;100780.00;5106188;28;20469;-81
2022/09/19 16:43:40;;;;;;;2.47;1.00;;;;;;;17.90;53.27;100775.84;5076613;28;20744;-81
2022/09/19 16:46:12;;;;;;;5.80;1.00;;;;;;;17.83;53.10;100778.09;5088531;28;20408;-81
2022/09/19 16:48:38;;;;;;;4.38;1.00;;;;;;;17.83;52.83;100787.16;5067204;28;20420;-81
2022/09/19 16:51:09;;;;;;;3.78;0.75;;;;;;;17.80;51.84;100775.94;5089230;28;20761;-80
2022/09/19 16:53:35;;;;;;;3.78;0.75;;;;;;;17.72;51.50;100774.59;5082986;28;20413;-79
2022/09/19 16:56:00;;;;;;;7.77;0.93;;;;;;;17.72;50.62;100784.75;5088917;28;20432;-82
2022/09/19 16:58:25;;;;;;;2.80;0.80;;;;;;;17.70;50.02;100781.47;5102316;28;20386;-80
2022/09/19 17:00:52;;;;;;;1.50;0.60;;;;;;;17.60;49.66;100788.66;5094326;28;20394;-81
2022/09/19 17:03:19;;;;;;;1.55;0.60;;;;;;;17.51;49.25;100789.50;5092466;28;20404;-79
2022/09/19 17:05:45;;;;;;;3.75;0.82;;;;;;;17.45;49.67;100791.44;5095242;28;20397;-79
2022/09/19 17:08:10;;;;;;;2.50;0.80;;;;;;;17.40;50.00;100786.00;5108121;28;20476;-80
2022/09/19 17:10:37;;;;;;;2.47;0.97;;;;;;;17.36;50.11;100784.09;5104983;28;20929;-80
2022/09/19 17:13:02;;;;;;;2.90;1.10;;;;;;;17.31;50.31;100786.88;5082461;28;20407;-79
2022/09/19 17:15:46;;;;;;;1.20;0.70;;;;;;;17.27;50.55;100794.00;5084562;28;20428;-79
2022/09/19 17:18:12;;;;;;;3.83;0.80;;;;;;;17.20;50.88;100799.78;5080039;28;20458;-81
2022/09/19 17:20:39;;;;;;;2.00;0.97;;;;;;;17.10;51.13;100797.09;5082476;28;20404;-79
2022/09/19 17:23:05;;;;;;;2.25;0.70;;;;;;;17.03;51.45;100800.13;5101735;28;20440;-79
2022/09/19 17:25:42;;;;;;;2.65;0.88;;;;;;;16.96;51.44;100798.78;5118170;28;20882;-79
2022/09/19 17:28:08;;;;;;;2.63;1.00;;;;;;;16.88;51.81;100797.44;5117533;28;20938;-79
2022/09/19 17:30:33;;;;;;;1.10;0.85;;;;;;;16.85;51.82;100791.72;5100395;28;20777;-79
2022/09/19 17:32:59;;;;;;;3.87;0.77;;;;;;;16.81;52.11;100796.09;5100594;28;20393;-80
2022/09/19 17:35:24;;;;;;;3.85;1.13;;;;;;;16.84;52.44;100796.34;5095927;28;20385;-80
2022/09/19 17:37:49;;;;;;;1.97;0.80;;;;;;;16.82;52.48;100798.56;5094049;28;20408;-81
2022/09/19 17:40:15;;;;;;;2.17;1.10;;;;;;;16.81;52.81;100799.66;5083301;28;20875;-80
2022/09/19 17:42:40;;;;;;;2.50;1.00;;;;;;;16.79;52.92;100803.78;5093157;28;20460;-80
2022/09/19 17:45:07;;;;;;;3.30;1.40;;;;;;;16.79;53.31;100806.50;5087894;28;20388;-81
2022/09/19 17:47:32;;;;;;;2.27;2.07;;;;;;;16.79;53.45;100803.78;5073951;28;20436;-79
2022/09/19 17:49:58;;;;;;;4.70;1.67;;;;;;;16.79;53.46;100806.50;5085133;28;20837;-78
2022/09/19 17:52:24;;;;;;;3.67;1.70;;;;;;;16.78;53.76;100807.59;5097823;28;20408;-78
2022/09/19 17:54:49;;;;;;;2.40;1.50;;;;;;;16.76;54.48;100815.28;5081229;28;20445;-86
2022/09/19 17:57:15;;;;;;;2.53;1.07;;;;;;;16.74;54.49;100806.50;5088332;28;20499;-82
2022/09/19 17:59:40;;;;;;;3.03;1.38;;;;;;;16.69;54.63;100809.25;5090779;28;20443;-79
2022/09/19 18:04:51;;;;;;;3.45;1.70;;;;;;;16.55;55.96;100815.31;5095275;28;20489;-79
2022/09/19 18:07:16;;;;;;;5.50;1.57;;;;;;;16.48;56.76;100814.72;5101767;28;20432;-81
2022/09/19 18:09:42;;;;;;;5.05;2.60;;;;;;;16.39;57.46;100824.59;5111569;28;20396;-79
2022/09/19 18:12:07;;;;;;;6.13;2.13;;;;;;;16.32;58.28;100825.97;5074836;28;20400;-79
2022/09/19 18:14:32;;;;;;;4.80;2.63;;;;;;;16.27;58.88;100829.50;5078769;28;20468;-79
2022/09/19 18:16:58;;;;;;;4.53;3.13;;;;;;;16.23;59.69;100836.63;5106236;28;20389;-80
2022/09/19 18:19:23;;;;;;;4.67;3.07;;;;;;;16.15;60.08;100833.59;5107012;28;20403;-81
2022/09/19 18:21:48;;;;;;;4.83;3.33;;;;;;;16.08;60.57;100834.69;5080728;28;20875;-80
2022/09/19 18:24:14;;;;;;;5.57;2.88;;;;;;;16.04;60.85;100838.22;5113595;28;20388;-80
2022/09/19 18:26:40;;;;;;;4.97;2.10;;;;;;;16.04;61.27;100838.22;5097240;28;20428;-80
2022/09/19 18:29:07;;;;;;;5.38;1.95;;;;;;;16.01;61.66;100846.97;5103080;28;20392;-80
2022/09/19 18:31:33;;;;;;;5.27;2.13;;;;;;;15.93;61.79;100842.06;5076604;28;20475;-81
2022/09/19 18:33:58;;;;;;;3.93;2.10;;;;;;;15.87;62.31;100843.94;5100169;28;20468;-80
2022/09/19 18:36:24;;;;;;;7.55;2.15;;;;;;;15.84;62.66;100846.44;5095044;28;20384;-80
2022/09/19 18:38:52;;;;;;;6.63;1.85;;;;;;;15.78;63.21;100848.31;5104660;28;20484;-81
2022/09/19 18:41:18;;;;;;;3.75;1.85;;;;;;;15.74;63.25;100847.19;5071973;28;20845;-81
2022/09/19 18:43:43;;;;;;;4.37;2.20;;;;;;;15.71;63.68;100857.88;5102441;28;20479;-80
2022/09/19 18:46:16;;;;;;;8.50;2.88;;;;;;;15.66;63.77;100853.19;5095371;28;20391;-80
2022/09/19 18:48:42;;;;;;;4.72;3.05;;;;;;;15.63;63.58;100852.91;5103569;28;20392;-81
2022/09/19 18:51:10;;;;;;;19.83;14.57;;;;;;;15.58;63.87;100859.16;5083288;28;20402;-80
2022/09/19 18:53:37;;;;;;;16.20;10.87;;;;;;;15.51;64.26;100861.34;5113178;28;20815;-81
2022/09/19 18:56:02;;;;;;;9.80;5.32;;;;;;;15.47;64.52;100863.78;5099998;28;20400;-82
2022/09/19 18:58:28;;;;;;;6.13;4.13;;;;;;;15.41;64.64;100864.81;5098150;28;20390;-82
2022/09/19 19:01:05;;;;;;;8.40;4.87;;;;;;;15.37;64.86;100871.09;5105416;27;20450;-82
2022/09/19 19:03:33;;;;;;;10.45;4.47;;;;;;;15.33;65.23;100869.97;5067501;28;20478;-82
2022/09/19 19:06:03;;;;;;;3.30;1.88;;;;;;;15.32;65.59;100871.06;5069273;28;20405;-81
2022/09/19 19:08:32;;;;;;;3.67;2.00;;;;;;;15.33;65.40;100869.97;5109148;27;20485;-81
2022/09/19 19:10:57;;;;;;;5.68;1.77;;;;;;;15.31;65.95;100877.63;5074790;28;20398;-81
2022/09/19 19:13:25;;;;;;;2.42;1.75;;;;;;;15.31;66.12;100878.41;5065727;28;20436;-82
2022/09/19 19:15:50;;;;;;;6.22;1.65;;;;;;;15.28;66.33;100873.50;5104371;27;20422;-81
2022/09/19 19:18:15;;;;;;;3.20;1.50;;;;;;;15.25;66.70;100881.38;5075861;28;20427;-81
2022/09/19 19:20:41;;;;;;;4.37;1.53;;;;;;;15.23;66.93;100886.31;5090129;28;20507;-81
2022/09/19 19:23:06;;;;;;;3.67;2.00;;;;;;;15.19;67.15;100888.75;5080663;28;20458;-81
2022/09/19 19:25:31;;;;;;;4.07;1.43;;;;;;;15.18;67.30;100881.63;5081917;28;20403;-82
2022/09/19 19:27:56;;;;;;;6.57;1.60;;;;;;;15.21;67.55;100883.03;5085883;28;20406;-81
2022/09/19 19:30:22;;;;;;;4.13;1.53;;;;;;;15.22;67.57;100879.19;5073617;28;20411;-81
2022/09/19 19:32:47;;;;;;;3.40;1.60;;;;;;;15.23;67.82;100886.31;5072088;28;20396;-82
2022/09/19 19:35:12;;;;;;;7.23;1.57;;;;;;;15.24;67.85;100887.97;5080893;28;20892;-81
2022/09/19 19:37:39;;;;;;;5.95;1.58;;;;;;;15.21;67.74;100881.13;5059130;28;20894;-82
2022/09/19 19:40:05;;;;;;;4.95;1.63;;;;;;;15.21;67.99;100885.75;5091731;28;20809;-81
2022/09/19 19:42:31;;;;;;;4.35;1.58;;;;;;;15.18;68.31;100892.53;5086038;28;20782;-81
2022/09/19 19:44:56;;;;;;;2.77;1.43;;;;;;;15.14;68.36;100894.19;5082621;28;20388;-81
2022/09/19 19:47:22;;;;;;;2.60;1.60;;;;;;;15.09;68.40;100891.41;5112021;28;20388;-81
2022/09/19 19:49:49;;;;;;;5.40;1.70;;;;;;;15.05;68.35;100891.13;5093747;28;20785;-81
2022/09/19 19:52:15;;;;;;;2.63;1.45;;;;;;;14.97;68.90;100893.53;5079653;28;20416;-81
2022/09/19 19:54:40;;;;;;;4.53;2.00;;;;;;;14.88;69.21;100895.13;5088676;28;20457;-81
2022/09/19 19:57:05;;;;;;;5.27;1.83;;;;;;;14.84;68.96;100899.44;5075285;28;20467;-81
2022/09/19 19:59:30;;;;;;;3.40;1.73;;;;;;;14.79;68.55;100900.22;5102350;28;20388;-81
2022/09/19 20:01:56;;;;;;;4.80;1.50;;;;;;;14.72;68.87;100894.16;5106019;28;20467;-83
2022/09/19 20:04:22;;;;;;;4.53;1.70;;;;;;;14.72;68.42;100893.38;5104217;28;20485;-80
2022/09/19 20:06:49;;;;;;;7.97;1.67;;;;;;;14.71;68.21;100892.53;5092522;28;20471;-79
2022/09/19 20:09:15;;;;;;;5.47;1.90;;;;;;;14.66;67.96;100891.66;5067564;28;20840;-81
2022/09/19 20:11:41;;;;;;;5.17;1.87;;;;;;;14.60;68.25;100892.69;5099375;28;20396;-81
2022/09/19 20:14:11;;;;;;;5.40;2.08;;;;;;;14.61;68.21;100889.72;5083348;28;20501;-82
2022/09/19 20:16:40;;;;;;;5.80;1.95;;;;;;;14.62;68.01;100891.34;5093783;28;20377;-82
2022/09/19 20:19:07;;;;;;;4.47;2.23;;;;;;;14.57;67.89;100888.59;5093147;28;20482;-81
2022/09/19 20:21:38;;;;;;;4.13;1.63;;;;;;;14.60;67.57;100892.69;5107654;28;20404;-81
2022/09/19 20:24:03;;;;;;;6.68;2.08;;;;;;;14.60;67.80;100893.53;5092481;28;20449;-81
2022/09/19 20:26:37;;;;;;;8.70;2.30;;;;;;;14.60;67.47;100896.25;5085395;28;20407;-81
2022/09/19 20:29:03;;;;;;;4.32;1.95;;;;;;;14.57;67.86;100893.22;5073417;28;20742;-81
2022/09/19 20:31:31;;;;;;;5.32;2.22;;;;;;;14.53;67.63;100901.94;5091493;28;20414;-81
2022/09/19 20:33:56;;;;;;;6.47;2.70;;;;;;;14.54;67.76;100897.31;5077209;28;20967;-81
2022/09/19 20:36:23;;;;;;;5.20;2.53;;;;;;;14.54;67.97;100898.13;5086817;28;20400;-82
2022/09/19 20:38:56;;;;;;;4.32;2.80;;;;;;;14.50;67.99;100899.72;5093182;28;20388;-81
2022/09/19 20:41:23;;;;;;;6.57;2.80;;;;;;;14.50;68.18;100898.91;5105805;28;20408;-81
2022/09/19 20:43:54;;;;;;;6.60;3.15;;;;;;;14.44;67.95;100894.50;5106444;28;20400;-81
2022/09/19 20:46:20;;;;;;;5.53;2.38;;;;;;;14.41;68.01;100897.72;5092970;28;20401;-81
2022/09/19 20:48:46;;;;;;;5.28;2.67;;;;;;;14.38;68.30;100900.97;5111291;28;20389;-82
2022/09/19 20:51:19;;;;;;;5.40;3.07;;;;;;;14.34;68.22;100897.13;5086053;28;20570;-81
2022/09/19 20:53:47;;;;;;;4.55;2.50;;;;;;;14.30;68.05;100906.88;5081033;28;20428;-81
2022/09/19 20:56:14;;;;;;;6.45;2.50;;;;;;;14.27;68.46;100910.09;5093024;28;20467;-82
2022/09/19 20:58:40;;;;;;;3.70;2.85;;;;;;;14.24;68.40;100911.44;5111046;28;20391;-81
2022/09/19 21:01:08;;;;;;;7.70;2.50;;;;;;;14.21;68.44;100906.53;5099557;28;20408;-81
2022/09/19 21:03:34;;;;;;;6.67;2.50;;;;;;;14.19;68.46;100908.69;5111322;28;20712;-81
2022/09/19 21:05:59;;;;;;;3.50;2.30;;;;;;;14.14;68.32;100905.91;5097916;28;20399;-82
2022/09/19 21:08:26;;;;;;;4.87;2.30;;;;;;;14.11;68.42;100917.31;5099145;27;20824;-82
2022/09/19 21:10:59;;;;;;;3.05;2.35;;;;;;;14.07;68.66;100910.72;5077612;28;20461;-82
2022/09/19 21:13:29;;;;;;;7.25;2.35;;;;;;;14.03;68.69;100910.41;5095872;28;20388;-82
2022/09/19 21:15:55;;;;;;;5.03;2.60;;;;;;;13.96;68.64;100912.50;5115005;28;20384;-81
2022/09/19 21:18:21;;;;;;;5.43;2.50;;;;;;;13.91;68.72;100915.19;5068345;28;20962;-82
2022/09/19 21:20:47;;;;;;;5.03;2.63;;;;;;;13.98;68.49;100920.44;5099624;28;20403;-82
2022/09/19 21:23:12;;;;;;;4.43;2.33;;;;;;;13.90;68.53;100919.00;5088493;28;20811;-82
2022/09/19 21:25:37;;;;;;;8.20;2.37;;;;;;;13.90;68.51;100915.44;5106347;28;20388;-82
2022/09/19 21:28:02;;;;;;;7.90;2.80;;;;;;;13.91;68.18;100919.81;5084569;28;20832;-82
2022/09/19 21:30:28;;;;;;;5.82;2.70;;;;;;;13.94;68.17;100914.69;5111631;28;20399;-82
2022/09/19 21:32:53;;;;;;;3.50;2.27;;;;;;;13.90;68.02;100921.72;5100495;28;20385;-81
2022/09/19 21:35:18;;;;;;;4.70;2.30;;;;;;;13.86;68.23;100919.78;5089555;28;20883;-81
2022/09/19 21:37:44;;;;;;;4.07;2.23;;;;;;;13.84;68.36;100919.19;5114280;28;20396;-82
2022/09/19 21:40:09;;;;;;;8.33;2.90;;;;;;;13.84;68.64;100928.19;5095810;28;20891;-81
2022/09/19 21:42:34;;;;;;;7.43;2.58;;;;;;;13.79;68.31;100936.31;5114592;28;20412;-81
2022/09/19 21:45:00;;;;;;;4.50;2.70;;;;;;;13.77;68.45;100921.28;5096204;28;20843;-81
2022/09/19 21:47:25;;;;;;;4.97;2.43;;;;;;;13.75;68.49;100931.63;5114453;28;20380;-81
2022/09/19 21:49:51;;;;;;;3.50;2.47;;;;;;;13.69;68.45;100930.75;5109542;28;20390;-81
2022/09/19 21:52:16;;;;;;;6.83;2.30;;;;;;;13.65;68.65;100932.31;5096591;28;20388;-81
2022/09/19 21:54:41;;;;;;;4.85;2.38;;;;;;;13.62;68.67;100932.00;5114248;28;20648;-82
2022/09/19 21:57:07;;;;;;;3.23;2.10;;;;;;;13.57;68.70;100935.47;5114296;28;20426;-81
2022/09/19 21:59:32;;;;;;;6.50;2.60;;;;;;;13.54;68.32;100933.25;5114243;28;20846;-81
2022/09/19 22:01:57;;;;;;;9.50;3.00;;;;;;;13.54;68.93;100930.53;5078333;28;20404;-81
2022/09/19 22:04:22;;;;;;;3.80;2.17;;;;;;;13.54;68.64;100933.25;5095877;28;20384;-82
2022/09/19 22:06:48;;;;;;;6.07;2.10;;;;;;;13.55;68.57;100934.09;5114057;28;20785;-82
2022/09/19 22:09:13;;;;;;;7.88;2.30;;;;;;;13.49;68.37;100930.50;5086412;28;20413;-81
2022/09/19 22:11:38;;;;;;;7.33;2.33;;;;;;;13.46;68.50;100931.81;5109223;28;20390;-81
2022/09/19 22:14:04;;;;;;;5.60;2.00;;;;;;;13.41;68.66;100928.19;5099208;28;20384;-81
2022/09/19 22:16:32;;;;;;;7.23;2.13;;;;;;;13.40;68.77;100926.56;5095585;28;20480;-81
2022/09/19 22:18:57;;;;;;;4.72;2.08;;;;;;;13.37;69.25;100929.78;5113705;28;20393;-82
2022/09/19 22:21:23;;;;;;;5.78;1.90;;;;;;;13.25;69.03;100929.88;5113070;28;20481;-82
2022/09/19 22:23:50;;;;;;;7.17;1.50;;;;;;;13.27;68.90;100925.00;5113707;28;20471;-82
2022/09/19 22:26:19;;;;;;;2.25;1.50;;;;;;;13.27;68.84;100922.28;5105545;28;20388;-81
2022/09/19 22:28:44;;;;;;;6.63;1.93;;;;;;;13.26;69.38;100915.22;5113572;28;20457;-81
2022/09/19 22:31:15;;;;;;;4.93;1.90;;;;;;;13.27;68.82;100916.03;5087652;28;20389;-82
2022/09/19 22:33:42;;;;;;;6.68;1.83;;;;;;;13.18;69.57;100922.97;5112737;28;20430;-82
2022/09/19 22:36:11;;;;;;;2.92;1.95;;;;;;;13.06;69.43;100919.50;5102569;28;20397;-81
2022/09/19 22:38:37;;;;;;;3.97;1.70;;;;;;;13.02;69.96;100920.00;5113428;28;20381;-81
2022/09/19 22:41:09;;;;;;;5.45;1.60;;;;;;;13.02;69.81;100919.19;5113122;28;20472;-81
2022/09/19 22:43:34;;;;;;;5.87;1.80;;;;;;;13.02;69.94;100930.06;5102182;28;20403;-81
2022/09/19 22:46:23;;;;;;;5.43;2.10;;;;;;;13.06;69.58;100933.94;5113282;28;20388;-81
2022/09/19 22:48:48;;;;;;;2.95;1.65;;;;;;;13.07;69.59;100935.59;5112826;28;20476;-81
2022/09/19 22:51:17;;;;;;;3.37;1.60;;;;;;;13.05;69.65;100929.56;5113155;28;20814;-81
2022/09/19 22:53:45;;;;;;;6.25;1.63;;;;;;;13.01;69.39;100931.94;5113083;28;20870;-82
2022/09/19 22:56:16;;;;;;;4.63;1.80;;;;;;;12.98;69.43;100932.44;5113073;28;20392;-81
2022/09/19 22:58:42;;;;;;;5.15;1.80;;;;;;;13.01;69.40;100934.66;5111360;28;20926;-82
2022/09/19 23:01:17;;;;;;;3.40;1.60;;;;;;;12.94;69.98;100935.94;5081562;28;20479;-81
2022/09/19 23:03:43;;;;;;;4.60;2.10;;;;;;;12.82;70.26;100938.72;5094601;28;20808;-82
2022/09/19 23:06:17;;;;;;;4.57;1.70;;;;;;;12.80;70.23;100932.72;5110322;28;20804;-82
2022/09/19 23:08:50;;;;;;;5.65;2.10;;;;;;;12.76;70.62;100938.91;5112582;28;20388;-81
2022/09/19 23:11:16;;;;;;;3.50;1.67;;;;;;;12.76;70.29;100934.28;5112779;28;20393;-81
2022/09/19 23:13:47;;;;;;;5.97;1.53;;;;;;;12.72;70.44;100938.56;5087070;28;20449;-82
2022/09/19 23:16:19;;;;;;;7.65;2.38;;;;;;;12.63;70.50;100939.22;5107773;28;20733;-81
2022/09/19 23:18:56;;;;;;;4.90;2.13;;;;;;;12.55;71.11;100935.00;5112752;28;20377;-82
2022/09/19 23:21:25;;;;;;;2.70;1.85;;;;;;;12.44;71.51;100935.94;5112273;28;20404;-81
2022/09/19 23:23:51;;;;;;;4.53;2.30;;;;;;;12.37;71.82;100933.38;5112692;28;20389;-81
2022/09/19 23:26:17;;;;;;;3.28;1.80;;;;;;;12.38;71.90;100936.91;5112183;28;20756;-81
2022/09/19 23:28:43;;;;;;;5.40;2.10;;;;;;;12.33;71.86;100936.81;5112612;28;20387;-81
2022/09/19 23:31:09;;;;;;;4.68;2.17;;;;;;;12.31;72.09;100930.81;5111926;28;20388;-81
2022/09/19 23:33:35;;;;;;;2.55;1.50;;;;;;;12.32;72.20;100935.16;5096458;28;20434;-81
2022/09/19 23:36:05;;;;;;;4.32;1.88;;;;;;;12.28;71.94;100932.09;5105457;28;20396;-81
2022/09/19 23:38:31;;;;;;;4.63;1.77;;;;;;;12.27;72.09;100935.91;5112343;28;20395;-82
2022/09/19 23:41:00;;;;;;;5.37;2.13;;;;;;;12.24;72.05;100935.56;5112268;28;20388;-81
2022/09/19 23:43:26;;;;;;;3.70;1.90;;;;;;;12.30;72.03;100934.56;5112103;28;20487;-81
2022/09/19 23:45:51;;;;;;;13.90;8.37;;;;;;;12.33;71.86;100940.34;5111820;28;20612;-82
2022/09/19 23:48:16;;;;;;;11.43;6.93;;;;;;;12.34;71.40;100930.31;5093820;28;20396;-81
2022/09/19 23:50:42;;;;;;;6.17;3.27;;;;;;;12.36;71.26;100934.44;5110496;28;20380;-82
2022/09/19 23:53:08;;;;;;;4.70;1.98;;;;;;;12.41;70.90;100928.25;5112056;28;20392;-81
2022/09/19 23:55:33;;;;;;;4.37;1.80;;;;;;;12.41;71.10;100934.50;5111999;28;20412;-82
2022/09/19 23:57:58;;;;;;;3.75;1.85;;;;;;;12.48;70.72;100937.06;5111773;28;20478;-81
